Time;durP1;ratioP1;P1;durP2;ratioP2;P2;SDS_P1;SDS_P2;PMS_P1;PMS_P2;Temp;Humidity;BMP_temperature;BMP_pressure;BME280_temperature;BME280_humidity;BME280_pressure;Samples;Min_cycle;Max_cycle;Signal;HPM_P1;HPM_P2
2021/09/19 00:01:43;;;;;;;1.77;1.30;;;;;;;;;;5092393;28;20048;-41
2021/09/19 00:04:09;;;;;;;0.82;0.70;;;;;;;;;;5092289;28;20083;-41
2021/09/19 00:06:34;;;;;;;1.13;1.00;;;;;;;;;;5092311;28;20046;-41
2021/09/19 00:08:59;;;;;;;1.70;1.00;;;;;;;;;;5092202;28;20077;-42
2021/09/19 00:11:25;;;;;;;1.67;1.10;;;;;;;;;;5091255;28;20017;-41
2021/09/19 00:13:50;;;;;;;1.23;1.08;;;;;;;;;;5092156;28;20501;-41
2021/09/19 00:16:16;;;;;;;1.25;1.00;;;;;;;;;;5092244;28;20016;-41
2021/09/19 00:18:42;;;;;;;1.58;1.20;;;;;;;;;;5092181;28;20016;-41
2021/09/19 00:21:07;;;;;;;2.90;1.20;;;;;;;;;;5092213;28;20428;-41
2021/09/19 00:23:32;;;;;;;1.50;1.23;;;;;;;;;;5092511;28;20025;-41
2021/09/19 00:25:58;;;;;;;1.00;0.90;;;;;;;;;;5091983;28;20024;-41
2021/09/19 00:28:23;;;;;;;1.27;1.15;;;;;;;;;;5094390;28;20036;-41
2021/09/19 00:30:48;;;;;;;1.60;1.38;;;;;;;;;;5095955;28;20105;-41
2021/09/19 00:33:14;;;;;;;1.38;1.27;;;;;;;;;;5096073;28;20024;-41
2021/09/19 00:35:39;;;;;;;3.40;1.08;;;;;;;;;;5094854;28;20352;-41
2021/09/19 00:38:05;;;;;;;1.63;1.27;;;;;;;;;;5095683;28;20032;-42
2021/09/19 00:40:30;;;;;;;1.25;0.95;;;;;;;;;;5095941;28;20023;-41
2021/09/19 00:42:56;;;;;;;1.55;1.05;;;;;;;;;;5096080;28;20039;-41
2021/09/19 00:45:22;;;;;;;1.25;1.10;;;;;;;;;;5095584;28;20040;-41
2021/09/19 00:47:48;;;;;;;2.75;1.10;;;;;;;;;;5095660;28;20036;-41
2021/09/19 00:50:15;;;;;;;4.15;1.25;;;;;;;;;;5095960;28;20023;-41
2021/09/19 00:52:41;;;;;;;2.33;1.30;;;;;;;;;;5095668;28;20020;-42
2021/09/19 00:55:08;;;;;;;7.28;1.23;;;;;;;;;;5095868;28;20032;-41
2021/09/19 00:57:37;;;;;;;3.72;1.15;;;;;;;;;;5095825;28;20050;-41
2021/09/19 01:00:03;;;;;;;1.95;1.05;;;;;;;;;;5095656;28;20050;-41
2021/09/19 01:02:29;;;;;;;1.13;0.85;;;;;;;;;;5095425;28;20029;-41
2021/09/19 01:04:54;;;;;;;6.93;2.05;;;;;;;;;;5095590;28;20027;-42
2021/09/19 01:07:20;;;;;;;3.17;1.52;;;;;;;;;;5095595;28;20687;-42
2021/09/19 01:09:46;;;;;;;4.25;1.02;;;;;;;;;;5094170;28;20063;-41
2021/09/19 01:12:12;;;;;;;1.58;1.10;;;;;;;;;;5095628;28;20039;-41
2021/09/19 01:14:38;;;;;;;2.55;1.20;;;;;;;;;;5095406;28;20038;-41
2021/09/19 01:17:05;;;;;;;1.20;1.10;;;;;;;;;;5095384;28;20024;-41
2021/09/19 01:19:32;;;;;;;2.53;1.02;;;;;;;;;;5095488;28;20043;-42
2021/09/19 01:21:57;;;;;;;4.43;1.33;;;;;;;;;;5094845;28;20454;-41
2021/09/19 01:24:26;;;;;;;1.73;1.00;;;;;;;;;;5093918;28;20052;-41
2021/09/19 01:26:51;;;;;;;1.25;1.00;;;;;;;;;;5094648;28;20461;-41
2021/09/19 01:29:17;;;;;;;2.60;1.48;;;;;;;;;;5094994;28;20094;-41
2021/09/19 01:31:42;;;;;;;2.03;1.20;;;;;;;;;;5095298;28;20039;-41
2021/09/19 01:34:07;;;;;;;1.83;1.40;;;;;;;;;;5094659;28;20420;-41
2021/09/19 01:36:35;;;;;;;1.65;0.98;;;;;;;;;;5094914;28;20059;-41
2021/09/19 01:39:00;;;;;;;1.83;1.10;;;;;;;;;;5094251;28;20538;-42
2021/09/19 01:41:26;;;;;;;4.15;1.55;;;;;;;;;;5094865;28;20119;-41
2021/09/19 01:43:53;;;;;;;1.38;0.90;;;;;;;;;;5094891;28;20016;-45
2021/09/19 01:46:18;;;;;;;1.95;1.45;;;;;;;;;;5094400;28;20051;-41
2021/09/19 01:48:44;;;;;;;1.52;1.10;;;;;;;;;;5094844;28;20028;-42
2021/09/19 01:51:09;;;;;;;2.25;1.08;;;;;;;;;;5094514;28;20525;-42
2021/09/19 01:53:36;;;;;;;4.15;1.10;;;;;;;;;;5094556;28;20016;-41
2021/09/19 01:56:02;;;;;;;1.20;0.85;;;;;;;;;;5094333;28;20027;-41
2021/09/19 01:58:28;;;;;;;1.73;1.33;;;;;;;;;;5094610;28;20012;-41
2021/09/19 02:00:54;;;;;;;1.85;1.38;;;;;;;;;;5094628;28;20482;-41
2021/09/19 02:03:20;;;;;;;1.17;1.08;;;;;;;;;;5093374;28;20016;-41
2021/09/19 02:05:45;;;;;;;2.40;1.33;;;;;;;;;;5094490;28;20923;-41
2021/09/19 02:08:10;;;;;;;1.48;1.17;;;;;;;;;;5094394;28;20103;-41
2021/09/19 02:10:36;;;;;;;1.73;1.27;;;;;;;;;;5092754;28;20031;-41
2021/09/19 02:13:01;;;;;;;2.20;1.10;;;;;;;;;;5094115;28;20046;-41
2021/09/19 02:15:26;;;;;;;3.03;1.55;;;;;;;;;;5094174;28;20024;-41
2021/09/19 02:17:52;;;;;;;2.17;1.13;;;;;;;;;;5093793;28;20047;-41
2021/09/19 02:20:17;;;;;;;1.92;1.48;;;;;;;;;;5094084;28;20039;-41
2021/09/19 02:22:43;;;;;;;4.13;1.05;;;;;;;;;;5093996;28;20451;-41
2021/09/19 02:25:09;;;;;;;3.83;2.00;;;;;;;;;;5093678;28;20414;-41
2021/09/19 02:27:35;;;;;;;3.38;1.40;;;;;;;;;;5094101;28;20020;-41
2021/09/19 02:30:03;;;;;;;3.35;1.10;;;;;;;;;;5093992;28;20031;-42
2021/09/19 02:32:28;;;;;;;1.83;1.35;;;;;;;;;;5093833;28;20020;-41
2021/09/19 02:34:53;;;;;;;9.27;1.20;;;;;;;;;;5093702;28;20363;-41
2021/09/19 02:37:19;;;;;;;3.80;1.10;;;;;;;;;;5092343;28;20489;-41
2021/09/19 02:39:44;;;;;;;2.33;1.40;;;;;;;;;;5093571;28;20530;-41
2021/09/19 02:42:09;;;;;;;2.80;1.52;;;;;;;;;;5093544;28;20034;-41
2021/09/19 02:44:35;;;;;;;1.73;1.17;;;;;;;;;;5093435;28;20048;-41
2021/09/19 02:47:00;;;;;;;1.50;1.40;;;;;;;;;;5091920;28;20127;-41
2021/09/19 02:49:26;;;;;;;8.40;1.60;;;;;;;;;;5093371;28;20074;-41
2021/09/19 02:51:52;;;;;;;1.63;1.17;;;;;;;;;;5092692;28;20499;-41
2021/09/19 02:54:17;;;;;;;2.33;1.40;;;;;;;;;;5093212;28;20034;-41
2021/09/19 02:56:43;;;;;;;1.45;1.10;;;;;;;;;;5093304;28;20077;-41
2021/09/19 02:59:08;;;;;;;3.72;1.55;;;;;;;;;;5093151;28;20032;-41
2021/09/19 03:01:33;;;;;;;3.05;1.33;;;;;;;;;;5093113;28;20047;-42
2021/09/19 03:03:59;;;;;;;1.85;1.25;;;;;;;;;;5093379;28;20028;-41
2021/09/19 03:06:26;;;;;;;1.58;1.40;;;;;;;;;;5093374;28;20056;-42
2021/09/19 03:08:51;;;;;;;2.65;1.50;;;;;;;;;;5093007;28;20024;-41
2021/09/19 03:11:17;;;;;;;2.90;1.27;;;;;;;;;;5093353;28;20024;-43
2021/09/19 03:13:43;;;;;;;1.10;1.00;;;;;;;;;;5092917;28;20032;-41
2021/09/19 03:16:08;;;;;;;3.33;1.20;;;;;;;;;;5093158;28;20042;-41
2021/09/19 03:18:33;;;;;;;1.42;1.23;;;;;;;;;;5092987;28;20024;-41
2021/09/19 03:20:59;;;;;;;1.83;1.08;;;;;;;;;;5092665;28;20024;-41
2021/09/19 03:23:24;;;;;;;1.30;1.10;;;;;;;;;;5093177;28;20020;-41
2021/09/19 03:25:50;;;;;;;1.55;1.15;;;;;;;;;;5092925;28;20020;-41
2021/09/19 03:28:15;;;;;;;2.85;1.45;;;;;;;;;;5092608;28;20024;-41
2021/09/19 03:30:40;;;;;;;1.75;1.30;;;;;;;;;;5092755;28;20062;-40
2021/09/19 03:33:06;;;;;;;1.17;1.08;;;;;;;;;;5092638;28;20040;-41
2021/09/19 03:35:31;;;;;;;3.17;1.08;;;;;;;;;;5092658;28;20022;-41
2021/09/19 03:37:57;;;;;;;4.45;1.33;;;;;;;;;;5091271;28;20390;-41
2021/09/19 03:40:22;;;;;;;1.38;1.00;;;;;;;;;;5092663;28;20016;-41
2021/09/19 03:42:50;;;;;;;4.70;1.00;;;;;;;;;;5092542;28;20032;-41
2021/09/19 03:45:15;;;;;;;1.30;1.05;;;;;;;;;;5092279;28;20047;-41
2021/09/19 03:47:41;;;;;;;3.00;1.05;;;;;;;;;;5092878;28;20077;-41
2021/09/19 03:50:07;;;;;;;2.45;1.27;;;;;;;;;;5092383;28;20315;-42
2021/09/19 03:52:32;;;;;;;1.40;1.15;;;;;;;;;;5092475;28;20043;-42
2021/09/19 03:55:00;;;;;;;2.28;1.33;;;;;;;;;;5092351;28;20024;-41
2021/09/19 03:57:26;;;;;;;9.63;1.13;;;;;;;;;;5092350;28;20036;-42
2021/09/19 03:59:51;;;;;;;1.90;1.30;;;;;;;;;;5091198;28;20019;-41
2021/09/19 04:02:17;;;;;;;1.20;1.10;;;;;;;;;;5094681;28;20040;-41
2021/09/19 04:04:42;;;;;;;1.85;1.58;;;;;;;;;;5096546;28;20013;-41
2021/09/19 04:07:07;;;;;;;1.33;0.90;;;;;;;;;;5096441;28;20157;-41
2021/09/19 04:09:33;;;;;;;2.00;1.17;;;;;;;;;;5096505;28;20028;-41
2021/09/19 04:11:58;;;;;;;1.73;1.33;;;;;;;;;;5096387;28;20058;-41
2021/09/19 04:14:24;;;;;;;1.45;1.15;;;;;;;;;;5095175;28;20023;-44
2021/09/19 04:16:49;;;;;;;4.03;1.55;;;;;;;;;;5096483;28;20032;-41
2021/09/19 04:19:15;;;;;;;1.40;1.30;;;;;;;;;;5096580;28;20398;-41
2021/09/19 04:21:40;;;;;;;1.23;0.93;;;;;;;;;;5096660;28;20028;-41
2021/09/19 04:24:06;;;;;;;2.15;1.40;;;;;;;;;;5096661;28;20084;-42
2021/09/19 04:26:31;;;;;;;2.40;1.33;;;;;;;;;;5096289;28;20039;-41
2021/09/19 04:28:56;;;;;;;2.03;1.13;;;;;;;;;;5096346;28;20019;-41
2021/09/19 04:31:22;;;;;;;2.38;1.02;;;;;;;;;;5096515;28;20526;-41
2021/09/19 04:33:47;;;;;;;2.58;1.45;;;;;;;;;;5096387;28;20482;-41
2021/09/19 04:36:13;;;;;;;1.63;1.50;;;;;;;;;;5095965;28;20509;-41
2021/09/19 04:38:38;;;;;;;3.78;1.20;;;;;;;;;;5096004;28;20023;-41
2021/09/19 04:41:03;;;;;;;5.00;1.52;;;;;;;;;;5095992;28;20382;-41
2021/09/19 04:43:29;;;;;;;1.70;1.05;;;;;;;;;;5096007;28;20081;-41
2021/09/19 04:45:54;;;;;;;1.88;1.35;;;;;;;;;;5095596;28;20071;-41
2021/09/19 04:48:20;;;;;;;1.77;1.20;;;;;;;;;;5095966;28;20028;-41
2021/09/19 04:50:45;;;;;;;1.27;1.17;;;;;;;;;;5095812;28;20478;-41
2021/09/19 04:53:11;;;;;;;2.10;1.27;;;;;;;;;;5095623;28;20352;-41
2021/09/19 04:55:36;;;;;;;2.17;1.40;;;;;;;;;;5095553;28;20040;-41
2021/09/19 04:58:02;;;;;;;1.17;0.93;;;;;;;;;;5095577;28;20020;-41
2021/09/19 05:00:27;;;;;;;2.03;1.35;;;;;;;;;;5094365;28;20137;-41
2021/09/19 05:02:53;;;;;;;3.78;1.30;;;;;;;;;;5095413;28;20016;-42
2021/09/19 05:05:18;;;;;;;1.38;1.17;;;;;;;;;;5095652;28;20032;-41
2021/09/19 05:07:44;;;;;;;1.52;1.33;;;;;;;;;;5095319;28;20027;-41
2021/09/19 05:10:09;;;;;;;2.00;1.40;;;;;;;;;;5095274;28;20035;-41
2021/09/19 05:12:35;;;;;;;2.50;1.35;;;;;;;;;;5095274;28;20020;-41
2021/09/19 05:15:00;;;;;;;1.70;1.10;;;;;;;;;;5094520;28;20502;-41
2021/09/19 05:17:25;;;;;;;1.70;1.20;;;;;;;;;;5095266;28;20030;-42
2021/09/19 05:19:51;;;;;;;2.45;1.10;;;;;;;;;;5095335;28;20043;-41
2021/09/19 05:22:16;;;;;;;2.95;1.45;;;;;;;;;;5095095;28;20467;-41
2021/09/19 05:24:42;;;;;;;2.60;1.50;;;;;;;;;;5095157;28;20049;-41
2021/09/19 05:27:07;;;;;;;14.43;2.53;;;;;;;;;;5094828;28;20382;-41
2021/09/19 05:29:33;;;;;;;3.83;1.40;;;;;;;;;;5094970;28;20032;-41
2021/09/19 05:31:58;;;;;;;4.72;1.33;;;;;;;;;;5095124;28;20012;-41
2021/09/19 05:34:23;;;;;;;1.60;1.17;;;;;;;;;;5095198;28;20368;-42
2021/09/19 05:36:49;;;;;;;4.32;1.20;;;;;;;;;;5095083;28;20356;-42
2021/09/19 05:39:14;;;;;;;2.08;0.93;;;;;;;;;;5094669;28;20024;-41
2021/09/19 05:41:39;;;;;;;1.20;1.00;;;;;;;;;;5095080;28;20424;-41
2021/09/19 05:44:05;;;;;;;1.10;1.00;;;;;;;;;;5094587;28;20035;-41
2021/09/19 05:46:30;;;;;;;1.55;0.90;;;;;;;;;;5094535;28;20044;-41
2021/09/19 05:48:56;;;;;;;6.65;1.10;;;;;;;;;;5094962;28;20036;-42
2021/09/19 05:51:21;;;;;;;1.77;1.27;;;;;;;;;;5094462;28;20012;-40
2021/09/19 05:53:47;;;;;;;1.58;1.13;;;;;;;;;;5094586;28;20028;-41
2021/09/19 05:56:12;;;;;;;1.60;1.27;;;;;;;;;;5094714;28;20077;-41
2021/09/19 05:58:38;;;;;;;1.80;0.98;;;;;;;;;;5094689;28;20501;-41
2021/09/19 06:01:03;;;;;;;1.55;1.20;;;;;;;;;;5094367;28;20020;-42
2021/09/19 06:03:29;;;;;;;1.27;0.88;;;;;;;;;;5094310;28;20077;-41
2021/09/19 06:05:55;;;;;;;1.67;1.27;;;;;;;;;;5094137;28;20031;-41
2021/09/19 06:08:20;;;;;;;2.33;1.00;;;;;;;;;;5094518;28;20023;-41
2021/09/19 06:10:45;;;;;;;2.42;1.35;;;;;;;;;;5094202;28;20489;-41
2021/09/19 06:13:11;;;;;;;3.25;1.00;;;;;;;;;;5094363;28;20482;-41
2021/09/19 06:15:36;;;;;;;1.90;1.05;;;;;;;;;;5094079;28;20430;-41
2021/09/19 06:18:02;;;;;;;1.33;1.10;;;;;;;;;;5093926;28;20028;-42
2021/09/19 06:20:27;;;;;;;1.33;1.10;;;;;;;;;;5094304;28;20047;-41
2021/09/19 06:22:53;;;;;;;3.00;1.13;;;;;;;;;;5093923;28;20027;-41
2021/09/19 06:25:18;;;;;;;1.85;1.42;;;;;;;;;;5091590;28;20024;-41
2021/09/19 06:27:43;;;;;;;1.15;1.00;;;;;;;;;;5094112;28;20043;-41
2021/09/19 06:30:09;;;;;;;1.42;1.00;;;;;;;;;;5093895;28;20020;-41
2021/09/19 06:32:35;;;;;;;0.98;0.77;;;;;;;;;;5093824;28;20024;-42
2021/09/19 06:35:01;;;;;;;1.55;1.45;;;;;;;;;;5093568;28;20023;-41
2021/09/19 06:37:27;;;;;;;1.40;1.20;;;;;;;;;;5093989;28;20110;-41
2021/09/19 06:39:52;;;;;;;1.50;1.10;;;;;;;;;;5093535;28;20125;-41
2021/09/19 06:42:18;;;;;;;1.17;0.98;;;;;;;;;;5093744;28;20035;-41
2021/09/19 06:44:43;;;;;;;3.17;1.00;;;;;;;;;;5093677;28;20044;-41
2021/09/19 06:47:08;;;;;;;1.02;0.93;;;;;;;;;;5093287;28;20063;-41
2021/09/19 06:49:34;;;;;;;1.95;1.75;;;;;;;;;;5093520;28;20471;-41
2021/09/19 06:51:59;;;;;;;3.33;0.95;;;;;;;;;;5093272;28;20410;-41
2021/09/19 06:54:25;;;;;;;3.10;1.33;;;;;;;;;;5093290;28;20020;-42
2021/09/19 06:56:50;;;;;;;1.55;1.10;;;;;;;;;;5093546;28;20073;-41
2021/09/19 06:59:16;;;;;;;1.58;1.25;;;;;;;;;;5093278;28;20024;-41
2021/09/19 07:01:42;;;;;;;2.05;1.08;;;;;;;;;;5093251;28;20099;-41
2021/09/19 07:04:07;;;;;;;1.17;1.08;;;;;;;;;;5093116;28;20044;-41
2021/09/19 07:06:33;;;;;;;1.92;1.08;;;;;;;;;;5092637;28;20036;-42
2021/09/19 07:08:58;;;;;;;2.70;1.38;;;;;;;;;;5092078;28;20020;-41
2021/09/19 07:11:24;;;;;;;1.30;1.17;;;;;;;;;;5091828;28;20506;-41
2021/09/19 07:13:49;;;;;;;3.15;1.10;;;;;;;;;;5093290;28;20016;-41
2021/09/19 07:16:15;;;;;;;1.45;1.30;;;;;;;;;;5093159;28;20035;-41
2021/09/19 07:18:41;;;;;;;1.67;1.20;;;;;;;;;;5092969;28;20455;-41
2021/09/19 07:21:07;;;;;;;1.52;1.25;;;;;;;;;;5092810;28;20122;-41
2021/09/19 07:23:33;;;;;;;1.80;1.30;;;;;;;;;;5092960;28;20016;-41
2021/09/19 07:25:58;;;;;;;1.27;0.93;;;;;;;;;;5092950;28;20028;-40
2021/09/19 07:28:24;;;;;;;2.63;1.20;;;;;;;;;;5092817;28;20467;-40
2021/09/19 07:30:49;;;;;;;1.00;0.90;;;;;;;;;;5092591;28;20028;-41
2021/09/19 07:33:15;;;;;;;2.67;1.00;;;;;;;;;;5092648;28;20028;-43
2021/09/19 07:35:40;;;;;;;0.95;0.90;;;;;;;;;;5092996;28;20031;-41
2021/09/19 07:38:06;;;;;;;1.17;0.90;;;;;;;;;;5092458;28;20027;-41
2021/09/19 07:40:32;;;;;;;1.65;1.15;;;;;;;;;;5092969;28;20089;-41
2021/09/19 07:42:59;;;;;;;1.67;1.23;;;;;;;;;;5092543;28;20008;-41
2021/09/19 07:45:25;;;;;;;1.88;1.27;;;;;;;;;;5091190;28;20490;-40
2021/09/19 07:47:53;;;;;;;1.45;0.70;;;;;;;;;;5092561;28;20071;-41
2021/09/19 07:50:19;;;;;;;2.63;1.58;;;;;;;;;;5092689;28;20036;-41
2021/09/19 07:52:44;;;;;;;1.73;1.15;;;;;;;;;;5092608;28;20534;-41
2021/09/19 07:55:14;;;;;;;2.33;1.52;;;;;;;;;;5092672;28;20085;-41
2021/09/19 07:57:40;;;;;;;1.40;0.90;;;;;;;;;;5092672;28;20421;-41
2021/09/19 08:00:08;;;;;;;3.55;1.38;;;;;;;;;;5092712;28;20032;-41
2021/09/19 08:02:38;;;;;;;2.25;0.85;;;;;;;;;;5092434;28;20023;-41
2021/09/19 08:05:04;;;;;;;1.60;1.25;;;;;;;;;;5092131;28;20032;-44
2021/09/19 08:07:29;;;;;;;1.67;1.52;;;;;;;;;;5092621;28;20028;-40
2021/09/19 08:09:55;;;;;;;1.63;1.15;;;;;;;;;;5092551;28;20459;-41
2021/09/19 08:12:20;;;;;;;1.83;1.05;;;;;;;;;;5092338;28;20475;-41
2021/09/19 08:14:45;;;;;;;1.42;1.00;;;;;;;;;;5092324;28;20386;-41
2021/09/19 08:17:11;;;;;;;3.90;1.10;;;;;;;;;;5090988;28;20021;-41
2021/09/19 08:19:37;;;;;;;1.77;0.88;;;;;;;;;;5092544;28;20466;-41
2021/09/19 08:22:03;;;;;;;1.65;1.00;;;;;;;;;;5090998;28;20021;-41
2021/09/19 08:24:28;;;;;;;2.65;1.10;;;;;;;;;;5092580;28;20477;-41
2021/09/19 08:26:54;;;;;;;1.33;1.10;;;;;;;;;;5091878;28;20064;-42
2021/09/19 08:29:19;;;;;;;2.13;1.00;;;;;;;;;;5092197;28;20077;-41
2021/09/19 08:31:45;;;;;;;2.78;0.98;;;;;;;;;;5092502;28;20028;-41
2021/09/19 08:34:10;;;;;;;3.28;1.40;;;;;;;;;;5091972;28;20020;-41
2021/09/19 08:36:36;;;;;;;1.92;1.42;;;;;;;;;;5092419;28;20030;-41
2021/09/19 08:39:03;;;;;;;2.53;1.10;;;;;;;;;;5091961;28;20024;-41
2021/09/19 08:41:29;;;;;;;1.25;1.05;;;;;;;;;;5092293;28;20020;-41
2021/09/19 08:43:54;;;;;;;1.67;1.13;;;;;;;;;;5092283;28;20435;-41
2021/09/19 08:46:21;;;;;;;2.20;0.90;;;;;;;;;;5091629;28;20050;-41
2021/09/19 08:48:47;;;;;;;2.47;1.10;;;;;;;;;;5093157;28;20036;-41
2021/09/19 08:51:13;;;;;;;4.13;1.00;;;;;;;;;;5095957;28;20028;-41
2021/09/19 08:53:39;;;;;;;1.00;0.90;;;;;;;;;;5095996;28;20066;-41
2021/09/19 08:56:05;;;;;;;1.10;0.75;;;;;;;;;;5095868;28;20463;-41
2021/09/19 08:58:31;;;;;;;2.38;1.00;;;;;;;;;;5095669;28;20024;-41
2021/09/19 09:00:57;;;;;;;3.08;1.13;;;;;;;;;;5095515;28;20031;-41
2021/09/19 09:03:23;;;;;;;4.07;1.05;;;;;;;;;;5095782;28;20036;-41
2021/09/19 09:06:00;;;;;;;1.65;0.90;;;;;;;;;;5095427;28;20032;-41
2021/09/19 09:08:26;;;;;;;4.03;1.02;;;;;;;;;;5095408;28;20061;-41
2021/09/19 09:10:53;;;;;;;1.77;1.17;;;;;;;;;;5095672;28;20030;-41
2021/09/19 09:13:23;;;;;;;1.80;0.82;;;;;;;;;;5095326;28;20024;-41
2021/09/19 09:15:52;;;;;;;1.25;1.00;;;;;;;;;;5095151;28;20020;-41
2021/09/19 09:18:29;;;;;;;1.20;1.10;;;;;;;;;;5095193;28;20483;-41
2021/09/19 09:20:56;;;;;;;1.70;1.40;;;;;;;;;;5095110;28;20028;-41
2021/09/19 09:23:22;;;;;;;1.85;0.85;;;;;;;;;;5095159;28;20462;-41
2021/09/19 09:26:07;;;;;;;1.42;1.15;;;;;;;;;;5095255;28;20058;-41
2021/09/19 09:28:51;;;;;;;5.38;1.38;;;;;;;;;;5095191;28;20438;-41
2021/09/19 09:31:19;;;;;;;5.90;3.70;;;;;;;;;;5095203;28;20441;-41
2021/09/19 09:33:55;;;;;;;5.82;3.80;;;;;;;;;;5095082;28;20024;-41
2021/09/19 09:36:29;;;;;;;1.63;1.02;;;;;;;;;;5094896;28;20027;-41
2021/09/19 09:38:54;;;;;;;12.07;3.05;;;;;;;;;;5095029;28;20034;-41
2021/09/19 09:41:20;;;;;;;266.15;72.35;;;;;;;;;;5094781;28;20097;-41
2021/09/19 09:43:46;;;;;;;9.68;3.97;;;;;;;;;;5094784;28;20070;-41
2021/09/19 09:46:11;;;;;;;2.67;1.20;;;;;;;;;;5094360;28;20040;-41
2021/09/19 09:48:40;;;;;;;1.33;1.23;;;;;;;;;;5094730;28;20058;-41
2021/09/19 09:51:22;;;;;;;3.95;1.23;;;;;;;;;;5094497;28;20522;-41
2021/09/19 09:53:52;;;;;;;6.35;1.92;;;;;;;;;;5094682;28;20028;-41
2021/09/19 09:56:17;;;;;;;1.55;1.10;;;;;;;;;;5094324;28;20032;-41
2021/09/19 09:58:43;;;;;;;2.40;1.35;;;;;;;;;;5094494;28;20027;-41
2021/09/19 10:01:08;;;;;;;2.08;1.20;;;;;;;;;;5094087;28;20035;-41
2021/09/19 10:03:34;;;;;;;2.20;1.40;;;;;;;;;;5094344;28;20038;-41
2021/09/19 10:05:59;;;;;;;3.42;1.50;;;;;;;;;;5094112;28;20023;-40
2021/09/19 10:08:25;;;;;;;3.22;1.25;;;;;;;;;;5094378;28;20036;-41
2021/09/19 10:10:51;;;;;;;2.97;1.00;;;;;;;;;;5094397;28;20135;-41
2021/09/19 10:13:18;;;;;;;3.65;1.13;;;;;;;;;;5094355;28;20162;-41
2021/09/19 10:15:43;;;;;;;1.80;1.35;;;;;;;;;;5094398;28;20054;-41
2021/09/19 10:18:10;;;;;;;2.03;1.48;;;;;;;;;;5094118;28;20477;-41
2021/09/19 10:20:37;;;;;;;1.73;1.02;;;;;;;;;;5093995;28;20043;-41
2021/09/19 10:23:03;;;;;;;1.40;1.20;;;;;;;;;;5093983;28;20024;-41
2021/09/19 10:25:37;;;;;;;2.92;1.77;;;;;;;;;;5093958;28;20051;-41
2021/09/19 10:28:22;;;;;;;1.67;1.00;;;;;;;;;;5093919;28;20032;-41
2021/09/19 10:31:06;;;;;;;1.35;1.15;;;;;;;;;;5093895;28;20031;-41
2021/09/19 10:33:34;;;;;;;1.77;1.20;;;;;;;;;;5093799;28;20020;-41
2021/09/19 10:36:00;;;;;;;1.02;0.90;;;;;;;;;;5093569;28;20401;-41
2021/09/19 10:38:36;;;;;;;2.45;1.25;;;;;;;;;;5093744;28;20036;-41
2021/09/19 10:41:30;;;;;;;1.65;1.20;;;;;;;;;;5093484;28;20039;-41
2021/09/19 10:44:00;;;;;;;2.28;1.02;;;;;;;;;;5079670;28;20070;-41
2021/09/19 10:46:48;;;;;;;1.60;1.13;;;;;;;;;;5093300;28;20433;-41
2021/09/19 10:49:17;;;;;;;1.33;1.10;;;;;;;;;;5093621;28;20106;-41
2021/09/19 10:52:01;;;;;;;1.55;1.33;;;;;;;;;;5093473;28;20023;-41
2021/09/19 10:54:47;;;;;;;2.90;1.23;;;;;;;;;;5093382;28;20077;-41
2021/09/19 10:57:26;;;;;;;2.17;1.23;;;;;;;;;;5093536;28;20024;-41
2021/09/19 11:00:07;;;;;;;0.80;0.80;;;;;;;;;;5093651;28;20195;-41
2021/09/19 11:02:33;;;;;;;2.50;1.55;;;;;;;;;;5093195;28;20390;-41
2021/09/19 11:05:17;;;;;;;2.80;1.10;;;;;;;;;;5093423;28;20099;-41
2021/09/19 11:07:43;;;;;;;1.20;0.95;;;;;;;;;;5093381;28;20093;-41
2021/09/19 11:10:09;;;;;;;2.35;0.95;;;;;;;;;;5093021;28;20020;-41
2021/09/19 11:12:46;;;;;;;2.65;1.70;;;;;;;;;;5092509;28;20085;-43
2021/09/19 11:15:14;;;;;;;2.28;1.27;;;;;;;;;;5093265;28;20028;-41
2021/09/19 11:17:47;;;;;;;2.35;0.88;;;;;;;;;;5092971;28;20023;-41
2021/09/19 11:20:16;;;;;;;3.90;1.40;;;;;;;;;;5092980;28;20024;-41
2021/09/19 11:22:43;;;;;;;1.05;0.90;;;;;;;;;;5092994;28;20023;-41
2021/09/19 11:25:10;;;;;;;2.20;1.10;;;;;;;;;;5092802;28;20028;-41
2021/09/19 11:27:38;;;;;;;1.77;0.75;;;;;;;;;;5093154;28;20094;-41
2021/09/19 11:30:04;;;;;;;1.02;0.90;;;;;;;;;;5092659;28;20024;-41
2021/09/19 11:32:30;;;;;;;1.92;1.55;;;;;;;;;;5091723;28;20090;-41
2021/09/19 11:34:58;;;;;;;2.60;1.05;;;;;;;;;;5092964;28;20454;-41
2021/09/19 11:37:25;;;;;;;2.33;1.10;;;;;;;;;;5092674;28;20099;-41
2021/09/19 11:39:50;;;;;;;0.80;0.80;;;;;;;;;;5091455;28;20635;-41
2021/09/19 11:42:16;;;;;;;1.33;1.17;;;;;;;;;;5091280;28;20134;-41
2021/09/19 11:44:46;;;;;;;1.88;1.52;;;;;;;;;;5092617;28;20044;-41
2021/09/19 11:47:12;;;;;;;1.73;1.20;;;;;;;;;;5091484;28;20059;-41
2021/09/19 11:49:41;;;;;;;0.90;0.80;;;;;;;;;;5091391;28;20043;-41
2021/09/19 11:52:07;;;;;;;1.63;1.35;;;;;;;;;;5092502;28;20031;-41
2021/09/19 11:54:33;;;;;;;1.50;1.27;;;;;;;;;;5092855;28;20024;-41
2021/09/19 11:56:58;;;;;;;1.88;1.10;;;;;;;;;;5092634;28;20081;-41
2021/09/19 11:59:24;;;;;;;8.05;4.50;;;;;;;;;;5092626;28;20509;-41
2021/09/19 12:01:49;;;;;;;2.92;2.08;;;;;;;;;;5092621;28;20052;-41
2021/09/19 12:04:15;;;;;;;3.03;1.95;;;;;;;;;;5092820;28;20040;-42
2021/09/19 12:06:41;;;;;;;6.22;2.80;;;;;;;;;;5092260;28;20068;-42
2021/09/19 12:09:11;;;;;;;3.60;1.70;;;;;;;;;;5092542;28;20024;-41
2021/09/19 12:11:48;;;;;;;8.55;4.15;;;;;;;;;;5092564;28;20103;-41
2021/09/19 12:14:22;;;;;;;2.35;1.42;;;;;;;;;;5092264;28;20039;-41
2021/09/19 12:17:01;;;;;;;3.90;2.00;;;;;;;;;;5092289;28;20081;-41
2021/09/19 12:19:27;;;;;;;8.27;3.55;;;;;;;;;;5092296;28;20147;-41
2021/09/19 12:22:01;;;;;;;1.75;1.40;;;;;;;;;;5092198;28;20498;-41
2021/09/19 12:24:28;;;;;;;1.17;1.10;;;;;;;;;;5096316;28;20526;-40
2021/09/19 12:27:08;;;;;;;1.52;1.20;;;;;;;;;;5096304;28;20115;-41
2021/09/19 12:29:34;;;;;;;1.98;1.63;;;;;;;;;;5096264;28;20081;-41
2021/09/19 12:32:00;;;;;;;1.90;1.40;;;;;;;;;;5096016;28;20020;-41
2021/09/19 12:34:27;;;;;;;2.08;1.23;;;;;;;;;;5096090;28;20028;-41
2021/09/19 12:36:54;;;;;;;5.50;1.90;;;;;;;;;;5096310;28;20073;-41
2021/09/19 12:39:21;;;;;;;2.00;1.30;;;;;;;;;;5095838;28;20024;-41
2021/09/19 12:41:48;;;;;;;1.27;1.17;;;;;;;;;;5096231;28;20027;-41
2021/09/19 12:44:15;;;;;;;1.55;1.10;;;;;;;;;;5095596;28;20035;-41
2021/09/19 12:46:45;;;;;;;1.90;1.48;;;;;;;;;;5095858;28;20032;-41
2021/09/19 12:49:17;;;;;;;2.67;1.23;;;;;;;;;;5095903;28;20482;-41
2021/09/19 12:51:59;;;;;;;1.35;1.13;;;;;;;;;;5095817;28;20028;-41
2021/09/19 12:54:24;;;;;;;2.42;1.92;;;;;;;;;;5096053;28;20028;-41
2021/09/19 12:56:49;;;;;;;2.20;1.33;;;;;;;;;;5095636;28;20463;-41
2021/09/19 12:59:15;;;;;;;1.40;1.23;;;;;;;;;;5095616;28;20051;-41
2021/09/19 13:01:40;;;;;;;4.15;1.42;;;;;;;;;;5095571;28;20042;-41
2021/09/19 13:04:06;;;;;;;6.38;1.83;;;;;;;;;;5095441;28;20036;-41
2021/09/19 13:06:31;;;;;;;1.75;1.20;;;;;;;;;;5095350;28;20562;-41
2021/09/19 13:08:57;;;;;;;2.50;1.42;;;;;;;;;;5095380;28;20032;-41
2021/09/19 13:11:23;;;;;;;3.10;1.27;;;;;;;;;;5095671;28;20066;-40
2021/09/19 13:13:48;;;;;;;2.05;1.40;;;;;;;;;;5095390;28;20069;-41
2021/09/19 13:16:14;;;;;;;2.60;1.30;;;;;;;;;;5095275;28;20424;-41
2021/09/19 13:18:39;;;;;;;2.08;1.30;;;;;;;;;;5095510;28;20035;-42
2021/09/19 13:21:06;;;;;;;2.17;1.25;;;;;;;;;;5095248;28;20024;-41
2021/09/19 13:23:32;;;;;;;1.75;1.20;;;;;;;;;;5093982;28;20035;-41
2021/09/19 13:25:57;;;;;;;1.92;1.50;;;;;;;;;;5095156;28;20025;-41
2021/09/19 13:28:23;;;;;;;1.50;1.10;;;;;;;;;;5095142;28;20530;-41
2021/09/19 13:30:49;;;;;;;2.08;1.40;;;;;;;;;;5095058;28;20012;-41
2021/09/19 13:33:15;;;;;;;3.17;1.35;;;;;;;;;;5094963;28;20062;-41
2021/09/19 13:35:41;;;;;;;2.20;1.80;;;;;;;;;;5094395;28;20066;-41
2021/09/19 13:38:06;;;;;;;3.50;1.38;;;;;;;;;;5094994;28;20032;-41
2021/09/19 13:40:32;;;;;;;2.40;1.45;;;;;;;;;;5094904;28;20034;-41
2021/09/19 13:42:57;;;;;;;2.42;1.42;;;;;;;;;;5094720;28;20023;-41
2021/09/19 13:45:23;;;;;;;3.47;1.42;;;;;;;;;;5094358;28;20131;-41
2021/09/19 13:47:49;;;;;;;2.67;1.52;;;;;;;;;;5094821;28;20024;-41
2021/09/19 13:50:15;;;;;;;1.85;1.67;;;;;;;;;;5094587;28;20024;-41
2021/09/19 13:52:40;;;;;;;3.35;1.75;;;;;;;;;;5094574;28;20111;-41
2021/09/19 13:55:06;;;;;;;1.83;1.27;;;;;;;;;;5094550;28;20012;-41
2021/09/19 13:57:31;;;;;;;3.42;2.30;;;;;;;;;;5094398;28;20035;-41
2021/09/19 13:59:57;;;;;;;4.32;2.10;;;;;;;;;;5094720;28;20020;-41
2021/09/19 14:02:22;;;;;;;4.93;1.60;;;;;;;;;;5094377;28;20024;-41
2021/09/19 14:04:48;;;;;;;5.57;1.48;;;;;;;;;;5094332;28;20038;-41
2021/09/19 14:07:13;;;;;;;2.17;1.60;;;;;;;;;;5094411;28;20036;-41
2021/09/19 14:09:39;;;;;;;2.45;1.55;;;;;;;;;;5094307;28;20012;-41
2021/09/19 14:12:04;;;;;;;3.67;1.42;;;;;;;;;;5094488;28;20028;-41
2021/09/19 14:14:30;;;;;;;2.10;1.55;;;;;;;;;;5094126;28;20019;-41
2021/09/19 14:16:55;;;;;;;1.98;1.38;;;;;;;;;;5094129;28;20039;-41
2021/09/19 14:19:21;;;;;;;1.95;1.25;;;;;;;;;;5094095;28;20417;-41
2021/09/19 14:21:46;;;;;;;4.75;1.83;;;;;;;;;;5094004;28;20034;-41
2021/09/19 14:24:12;;;;;;;2.08;1.42;;;;;;;;;;5093931;28;20036;-41
2021/09/19 14:26:38;;;;;;;4.15;1.58;;;;;;;;;;5094168;28;20032;-41
2021/09/19 14:29:03;;;;;;;4.38;1.60;;;;;;;;;;5093999;28;20020;-41
2021/09/19 14:31:29;;;;;;;1.30;1.20;;;;;;;;;;5093925;28;20138;-41
2021/09/19 14:33:54;;;;;;;2.00;1.38;;;;;;;;;;5094099;28;20056;-41
2021/09/19 14:36:20;;;;;;;2.65;1.45;;;;;;;;;;5093707;28;20036;-41
2021/09/19 14:38:45;;;;;;;1.63;1.48;;;;;;;;;;5093735;28;20043;-41
2021/09/19 14:41:10;;;;;;;3.10;2.15;;;;;;;;;;5093499;28;20071;-41